sensor_id;sensor_type;location;lat;lon;timestamp;P1;durP1;ratioP1;P2;durP2;ratioP2
13571;SDS011;6857;53.484;10.216;2023-12-04T00:02:22;32.37;;;14.33;;
13571;SDS011;6857;53.484;10.216;2023-12-04T00:04:47;27.60;;;14.37;;
13571;SDS011;6857;53.484;10.216;2023-12-04T00:07:13;27.50;;;13.53;;
13571;SDS011;6857;53.484;10.216;2023-12-04T00:09:38;28.53;;;13.77;;
13571;SDS011;6857;53.484;10.216;2023-12-04T00:12:04;31.50;;;14.83;;
13571;SDS011;6857;53.484;10.216;2023-12-04T00:14:30;28.97;;;14.87;;
13571;SDS011;6857;53.484;10.216;2023-12-04T00:16:55;29.53;;;14.37;;
13571;SDS011;6857;53.484;10.216;2023-12-04T00:19:21;34.40;;;16.03;;
13571;SDS011;6857;53.484;10.216;2023-12-04T00:21:46;30.83;;;14.93;;
13571;SDS011;6857;53.484;10.216;2023-12-04T00:24:12;30.07;;;14.80;;
13571;SDS011;6857;53.484;10.216;2023-12-04T00:26:38;34.00;;;15.37;;
13571;SDS011;6857;53.484;10.216;2023-12-04T00:29:09;29.67;;;14.20;;
13571;SDS011;6857;53.484;10.216;2023-12-04T00:31:35;30.17;;;15.30;;
13571;SDS011;6857;53.484;10.216;2023-12-04T00:34:00;29.40;;;14.50;;
13571;SDS011;6857;53.484;10.216;2023-12-04T00:36:29;34.23;;;14.90;;
13571;SDS011;6857;53.484;10.216;2023-12-04T00:38:55;32.17;;;14.97;;
13571;SDS011;6857;53.484;10.216;2023-12-04T00:41:21;29.90;;;14.47;;
13571;SDS011;6857;53.484;10.216;2023-12-04T00:43:46;31.73;;;15.40;;
13571;SDS011;6857;53.484;10.216;2023-12-04T00:46:12;34.70;;;15.47;;
13571;SDS011;6857;53.484;10.216;2023-12-04T00:48:37;36.30;;;14.67;;
13571;SDS011;6857;53.484;10.216;2023-12-04T00:51:03;32.10;;;15.30;;
13571;SDS011;6857;53.484;10.216;2023-12-04T00:53:28;28.17;;;14.40;;
13571;SDS011;6857;53.484;10.216;2023-12-04T00:55:54;31.13;;;13.97;;
13571;SDS011;6857;53.484;10.216;2023-12-04T00:58:19;30.40;;;14.63;;
13571;SDS011;6857;53.484;10.216;2023-12-04T01:00:45;27.87;;;14.03;;
13571;SDS011;6857;53.484;10.216;2023-12-04T01:03:13;32.50;;;14.73;;
13571;SDS011;6857;53.484;10.216;2023-12-04T01:05:39;30.20;;;15.10;;
13571;SDS011;6857;53.484;10.216;2023-12-04T01:08:05;32.87;;;16.07;;
13571;SDS011;6857;53.484;10.216;2023-12-04T01:10:30;35.93;;;15.20;;
13571;SDS011;6857;53.484;10.216;2023-12-04T01:12:56;34.57;;;16.13;;
13571;SDS011;6857;53.484;10.216;2023-12-04T01:15:22;31.90;;;15.83;;
13571;SDS011;6857;53.484;10.216;2023-12-04T01:17:48;34.50;;;15.80;;
13571;SDS011;6857;53.484;10.216;2023-12-04T01:20:14;34.63;;;15.97;;
13571;SDS011;6857;53.484;10.216;2023-12-04T01:22:40;31.03;;;14.27;;
13571;SDS011;6857;53.484;10.216;2023-12-04T01:25:05;32.70;;;15.40;;
13571;SDS011;6857;53.484;10.216;2023-12-04T01:27:32;39.93;;;16.50;;
13571;SDS011;6857;53.484;10.216;2023-12-04T01:30:00;33.67;;;16.47;;
13571;SDS011;6857;53.484;10.216;2023-12-04T01:32:26;34.93;;;15.47;;
13571;SDS011;6857;53.484;10.216;2023-12-04T01:34:51;27.67;;;14.47;;
13571;SDS011;6857;53.484;10.216;2023-12-04T01:37:17;36.90;;;15.93;;
13571;SDS011;6857;53.484;10.216;2023-12-04T01:39:42;33.47;;;15.87;;
13571;SDS011;6857;53.484;10.216;2023-12-04T01:42:09;34.13;;;16.13;;
13571;SDS011;6857;53.484;10.216;2023-12-04T01:44:35;32.97;;;14.97;;
13571;SDS011;6857;53.484;10.216;2023-12-04T01:47:02;40.67;;;16.03;;
13571;SDS011;6857;53.484;10.216;2023-12-04T01:49:28;43.27;;;16.47;;
13571;SDS011;6857;53.484;10.216;2023-12-04T01:51:54;34.97;;;16.60;;
13571;SDS011;6857;53.484;10.216;2023-12-04T01:54:20;30.63;;;14.57;;
13571;SDS011;6857;53.484;10.216;2023-12-04T01:56:46;31.47;;;15.60;;
13571;SDS011;6857;53.484;10.216;2023-12-04T01:59:12;29.27;;;14.10;;
13571;SDS011;6857;53.484;10.216;2023-12-04T02:01:37;31.00;;;15.10;;
13571;SDS011;6857;53.484;10.216;2023-12-04T02:04:05;33.13;;;14.27;;
13571;SDS011;6857;53.484;10.216;2023-12-04T02:06:31;33.00;;;14.80;;
13571;SDS011;6857;53.484;10.216;2023-12-04T02:08:56;34.07;;;14.90;;
13571;SDS011;6857;53.484;10.216;2023-12-04T02:11:22;29.00;;;14.43;;
13571;SDS011;6857;53.484;10.216;2023-12-04T02:13:48;31.37;;;14.43;;
13571;SDS011;6857;53.484;10.216;2023-12-04T02:16:13;35.80;;;15.77;;
13571;SDS011;6857;53.484;10.216;2023-12-04T02:18:41;26.13;;;14.17;;
13571;SDS011;6857;53.484;10.216;2023-12-04T02:21:08;31.93;;;15.30;;
13571;SDS011;6857;53.484;10.216;2023-12-04T02:23:33;30.23;;;14.70;;
13571;SDS011;6857;53.484;10.216;2023-12-04T02:26:01;34.27;;;15.83;;
13571;SDS011;6857;53.484;10.216;2023-12-04T02:28:34;31.37;;;13.77;;
13571;SDS011;6857;53.484;10.216;2023-12-04T02:31:02;32.60;;;15.93;;
13571;SDS011;6857;53.484;10.216;2023-12-04T02:33:30;33.97;;;14.73;;
13571;SDS011;6857;53.484;10.216;2023-12-04T02:35:57;32.17;;;13.67;;
13571;SDS011;6857;53.484;10.216;2023-12-04T02:38:24;32.83;;;15.47;;
13571;SDS011;6857;53.484;10.216;2023-12-04T02:40:51;33.47;;;15.87;;
13571;SDS011;6857;53.484;10.216;2023-12-04T02:43:16;30.33;;;14.33;;
13571;SDS011;6857;53.484;10.216;2023-12-04T02:45:42;31.00;;;14.67;;
13571;SDS011;6857;53.484;10.216;2023-12-04T02:48:07;29.03;;;13.67;;
13571;SDS011;6857;53.484;10.216;2023-12-04T02:50:35;29.77;;;14.20;;
13571;SDS011;6857;53.484;10.216;2023-12-04T02:53:00;32.70;;;14.00;;
13571;SDS011;6857;53.484;10.216;2023-12-04T02:55:26;29.57;;;14.23;;
13571;SDS011;6857;53.484;10.216;2023-12-04T02:57:53;31.77;;;13.60;;
13571;SDS011;6857;53.484;10.216;2023-12-04T03:00:19;26.73;;;13.80;;
13571;SDS011;6857;53.484;10.216;2023-12-04T03:02:44;27.90;;;13.63;;
13571;SDS011;6857;53.484;10.216;2023-12-04T03:05:10;35.27;;;14.67;;
13571;SDS011;6857;53.484;10.216;2023-12-04T03:07:35;27.63;;;13.63;;
13571;SDS011;6857;53.484;10.216;2023-12-04T03:10:01;24.73;;;12.80;;
13571;SDS011;6857;53.484;10.216;2023-12-04T03:12:26;31.20;;;13.67;;
13571;SDS011;6857;53.484;10.216;2023-12-04T03:14:52;25.90;;;12.87;;
13571;SDS011;6857;53.484;10.216;2023-12-04T03:17:18;26.33;;;13.37;;
13571;SDS011;6857;53.484;10.216;2023-12-04T03:19:43;24.73;;;13.00;;
13571;SDS011;6857;53.484;10.216;2023-12-04T03:22:09;28.83;;;12.83;;
13571;SDS011;6857;53.484;10.216;2023-12-04T03:24:34;34.80;;;14.87;;
13571;SDS011;6857;53.484;10.216;2023-12-04T03:27:00;26.97;;;12.73;;
13571;SDS011;6857;53.484;10.216;2023-12-04T03:29:25;30.47;;;13.03;;
13571;SDS011;6857;53.484;10.216;2023-12-04T03:31:51;25.37;;;12.37;;
13571;SDS011;6857;53.484;10.216;2023-12-04T03:34:16;24.47;;;11.57;;
13571;SDS011;6857;53.484;10.216;2023-12-04T03:36:42;21.33;;;10.77;;
13571;SDS011;6857;53.484;10.216;2023-12-04T03:39:07;22.97;;;11.70;;
13571;SDS011;6857;53.484;10.216;2023-12-04T03:41:33;23.23;;;12.10;;
13571;SDS011;6857;53.484;10.216;2023-12-04T03:43:59;20.80;;;11.10;;
13571;SDS011;6857;53.484;10.216;2023-12-04T03:46:24;24.87;;;11.37;;
13571;SDS011;6857;53.484;10.216;2023-12-04T03:48:50;19.03;;;10.43;;
13571;SDS011;6857;53.484;10.216;2023-12-04T03:51:16;21.07;;;10.67;;
13571;SDS011;6857;53.484;10.216;2023-12-04T03:53:41;18.13;;;9.80;;
13571;SDS011;6857;53.484;10.216;2023-12-04T03:56:07;22.73;;;11.13;;
13571;SDS011;6857;53.484;10.216;2023-12-04T03:58:33;18.70;;;10.03;;
13571;SDS011;6857;53.484;10.216;2023-12-04T04:00:59;21.73;;;10.37;;
13571;SDS011;6857;53.484;10.216;2023-12-04T04:03:24;18.20;;;9.90;;
13571;SDS011;6857;53.484;10.216;2023-12-04T04:05:50;18.87;;;9.50;;
13571;SDS011;6857;53.484;10.216;2023-12-04T04:08:15;22.03;;;9.50;;
13571;SDS011;6857;53.484;10.216;2023-12-04T04:10:41;21.10;;;9.90;;
13571;SDS011;6857;53.484;10.216;2023-12-04T04:13:06;19.10;;;9.57;;
13571;SDS011;6857;53.484;10.216;2023-12-04T04:15:32;21.00;;;10.10;;
13571;SDS011;6857;53.484;10.216;2023-12-04T04:17:57;20.13;;;9.73;;
13571;SDS011;6857;53.484;10.216;2023-12-04T04:20:23;20.07;;;11.00;;
13571;SDS011;6857;53.484;10.216;2023-12-04T04:22:48;20.47;;;10.53;;
13571;SDS011;6857;53.484;10.216;2023-12-04T04:25:14;18.17;;;9.37;;
13571;SDS011;6857;53.484;10.216;2023-12-04T04:27:40;18.57;;;10.10;;
13571;SDS011;6857;53.484;10.216;2023-12-04T04:30:06;20.13;;;9.43;;
13571;SDS011;6857;53.484;10.216;2023-12-04T04:32:33;18.03;;;9.40;;
13571;SDS011;6857;53.484;10.216;2023-12-04T04:34:59;22.33;;;9.53;;
13571;SDS011;6857;53.484;10.216;2023-12-04T04:37:24;20.83;;;10.43;;
13571;SDS011;6857;53.484;10.216;2023-12-04T04:39:50;21.73;;;9.83;;
13571;SDS011;6857;53.484;10.216;2023-12-04T04:42:15;21.00;;;9.97;;
13571;SDS011;6857;53.484;10.216;2023-12-04T04:44:41;21.60;;;10.33;;
13571;SDS011;6857;53.484;10.216;2023-12-04T04:47:06;20.67;;;9.90;;
13571;SDS011;6857;53.484;10.216;2023-12-04T04:49:32;20.27;;;10.77;;
13571;SDS011;6857;53.484;10.216;2023-12-04T04:51:58;20.10;;;10.80;;
13571;SDS011;6857;53.484;10.216;2023-12-04T04:54:23;17.87;;;10.43;;
13571;SDS011;6857;53.484;10.216;2023-12-04T04:56:49;19.97;;;10.50;;
13571;SDS011;6857;53.484;10.216;2023-12-04T04:59:16;20.30;;;9.83;;
13571;SDS011;6857;53.484;10.216;2023-12-04T05:01:41;21.70;;;11.23;;
13571;SDS011;6857;53.484;10.216;2023-12-04T05:04:07;20.53;;;9.57;;
13571;SDS011;6857;53.484;10.216;2023-12-04T05:06:32;19.17;;;10.23;;
13571;SDS011;6857;53.484;10.216;2023-12-04T05:08:58;19.30;;;10.47;;
13571;SDS011;6857;53.484;10.216;2023-12-04T05:11:24;22.57;;;10.47;;
13571;SDS011;6857;53.484;10.216;2023-12-04T05:13:49;28.27;;;13.20;;
13571;SDS011;6857;53.484;10.216;2023-12-04T05:16:15;22.40;;;10.37;;
13571;SDS011;6857;53.484;10.216;2023-12-04T05:18:40;22.40;;;10.40;;
13571;SDS011;6857;53.484;10.216;2023-12-04T05:21:09;19.70;;;11.07;;
13571;SDS011;6857;53.484;10.216;2023-12-04T05:23:36;22.13;;;10.87;;
13571;SDS011;6857;53.484;10.216;2023-12-04T05:26:02;23.27;;;10.60;;
13571;SDS011;6857;53.484;10.216;2023-12-04T05:28:28;20.10;;;10.13;;
13571;SDS011;6857;53.484;10.216;2023-12-04T05:30:53;22.77;;;11.03;;
13571;SDS011;6857;53.484;10.216;2023-12-04T05:33:21;20.77;;;10.13;;
13571;SDS011;6857;53.484;10.216;2023-12-04T05:35:48;25.47;;;11.03;;
13571;SDS011;6857;53.484;10.216;2023-12-04T05:38:16;21.90;;;11.23;;
13571;SDS011;6857;53.484;10.216;2023-12-04T05:40:44;21.77;;;11.33;;
13571;SDS011;6857;53.484;10.216;2023-12-04T05:43:12;18.70;;;10.07;;
13571;SDS011;6857;53.484;10.216;2023-12-04T05:45:38;21.27;;;10.40;;
13571;SDS011;6857;53.484;10.216;2023-12-04T05:48:04;21.43;;;10.37;;
13571;SDS011;6857;53.484;10.216;2023-12-04T05:50:35;23.30;;;11.03;;
13571;SDS011;6857;53.484;10.216;2023-12-04T05:53:05;25.00;;;12.33;;
13571;SDS011;6857;53.484;10.216;2023-12-04T05:55:34;22.97;;;11.03;;
13571;SDS011;6857;53.484;10.216;2023-12-04T05:58:00;26.53;;;10.93;;
13571;SDS011;6857;53.484;10.216;2023-12-04T06:00:28;24.07;;;11.43;;
13571;SDS011;6857;53.484;10.216;2023-12-04T06:02:56;25.57;;;12.00;;
13571;SDS011;6857;53.484;10.216;2023-12-04T06:05:28;26.07;;;12.33;;
13571;SDS011;6857;53.484;10.216;2023-12-04T06:07:54;26.10;;;13.00;;
13571;SDS011;6857;53.484;10.216;2023-12-04T06:10:20;23.27;;;11.37;;
13571;SDS011;6857;53.484;10.216;2023-12-04T06:12:46;28.90;;;12.57;;
13571;SDS011;6857;53.484;10.216;2023-12-04T06:15:14;24.23;;;12.80;;
13571;SDS011;6857;53.484;10.216;2023-12-04T06:17:41;27.83;;;13.63;;
13571;SDS011;6857;53.484;10.216;2023-12-04T06:20:13;30.73;;;13.67;;
13571;SDS011;6857;53.484;10.216;2023-12-04T06:22:43;28.07;;;13.23;;
13571;SDS011;6857;53.484;10.216;2023-12-04T06:25:10;28.93;;;12.83;;
13571;SDS011;6857;53.484;10.216;2023-12-04T06:27:36;29.00;;;15.13;;
13571;SDS011;6857;53.484;10.216;2023-12-04T06:30:05;30.63;;;13.20;;
13571;SDS011;6857;53.484;10.216;2023-12-04T06:32:32;27.40;;;13.10;;
13571;SDS011;6857;53.484;10.216;2023-12-04T06:34:58;26.40;;;13.33;;
13571;SDS011;6857;53.484;10.216;2023-12-04T06:37:28;27.17;;;13.27;;
13571;SDS011;6857;53.484;10.216;2023-12-04T06:39:54;30.00;;;13.50;;
13571;SDS011;6857;53.484;10.216;2023-12-04T06:42:28;31.63;;;13.87;;
13571;SDS011;6857;53.484;10.216;2023-12-04T06:44:54;29.57;;;13.83;;
13571;SDS011;6857;53.484;10.216;2023-12-04T06:47:22;26.93;;;12.93;;
13571;SDS011;6857;53.484;10.216;2023-12-04T06:49:50;26.63;;;14.13;;
13571;SDS011;6857;53.484;10.216;2023-12-04T06:52:21;25.50;;;12.30;;
13571;SDS011;6857;53.484;10.216;2023-12-04T06:54:50;27.47;;;13.37;;
13571;SDS011;6857;53.484;10.216;2023-12-04T06:57:16;28.80;;;13.47;;
13571;SDS011;6857;53.484;10.216;2023-12-04T06:59:44;23.67;;;12.70;;
13571;SDS011;6857;53.484;10.216;2023-12-04T07:02:11;27.03;;;12.70;;
13571;SDS011;6857;53.484;10.216;2023-12-04T07:04:42;27.73;;;13.13;;
13571;SDS011;6857;53.484;10.216;2023-12-04T07:07:08;26.33;;;12.23;;
13571;SDS011;6857;53.484;10.216;2023-12-04T07:09:35;30.07;;;13.77;;
13571;SDS011;6857;53.484;10.216;2023-12-04T07:12:01;22.80;;;12.10;;
13571;SDS011;6857;53.484;10.216;2023-12-04T07:14:28;25.17;;;12.33;;
13571;SDS011;6857;53.484;10.216;2023-12-04T07:16:56;25.57;;;12.30;;
13571;SDS011;6857;53.484;10.216;2023-12-04T07:19:22;27.17;;;12.20;;
13571;SDS011;6857;53.484;10.216;2023-12-04T07:21:50;28.97;;;13.30;;
13571;SDS011;6857;53.484;10.216;2023-12-04T07:24:16;21.83;;;12.27;;
13571;SDS011;6857;53.484;10.216;2023-12-04T07:26:42;26.00;;;11.77;;
13571;SDS011;6857;53.484;10.216;2023-12-04T07:29:15;25.63;;;12.47;;
13571;SDS011;6857;53.484;10.216;2023-12-04T07:31:41;21.80;;;11.00;;
13571;SDS011;6857;53.484;10.216;2023-12-04T07:34:07;27.53;;;12.77;;
13571;SDS011;6857;53.484;10.216;2023-12-04T07:36:41;28.63;;;12.90;;
13571;SDS011;6857;53.484;10.216;2023-12-04T07:39:11;27.70;;;13.20;;
13571;SDS011;6857;53.484;10.216;2023-12-04T07:41:40;22.87;;;11.07;;
13571;SDS011;6857;53.484;10.216;2023-12-04T07:44:06;24.37;;;13.37;;
13571;SDS011;6857;53.484;10.216;2023-12-04T07:46:37;22.57;;;11.23;;
13571;SDS011;6857;53.484;10.216;2023-12-04T07:49:06;28.30;;;12.97;;
13571;SDS011;6857;53.484;10.216;2023-12-04T07:51:32;25.60;;;12.50;;
13571;SDS011;6857;53.484;10.216;2023-12-04T07:53:58;24.13;;;11.40;;
13571;SDS011;6857;53.484;10.216;2023-12-04T07:56:23;27.40;;;12.50;;
13571;SDS011;6857;53.484;10.216;2023-12-04T07:58:49;32.40;;;13.20;;
13571;SDS011;6857;53.484;10.216;2023-12-04T08:01:16;27.23;;;12.97;;
13571;SDS011;6857;53.484;10.216;2023-12-04T08:03:41;24.40;;;12.13;;
13571;SDS011;6857;53.484;10.216;2023-12-04T08:06:07;28.90;;;13.33;;
13571;SDS011;6857;53.484;10.216;2023-12-04T08:08:32;28.90;;;13.17;;
13571;SDS011;6857;53.484;10.216;2023-12-04T08:10:58;27.73;;;12.73;;
13571;SDS011;6857;53.484;10.216;2023-12-04T08:13:23;26.13;;;12.33;;
13571;SDS011;6857;53.484;10.216;2023-12-04T08:15:49;28.03;;;14.17;;
13571;SDS011;6857;53.484;10.216;2023-12-04T08:18:14;29.73;;;14.47;;
13571;SDS011;6857;53.484;10.216;2023-12-04T08:20:41;29.93;;;13.57;;
13571;SDS011;6857;53.484;10.216;2023-12-04T08:23:06;27.57;;;13.33;;
13571;SDS011;6857;53.484;10.216;2023-12-04T08:25:32;28.63;;;13.77;;
13571;SDS011;6857;53.484;10.216;2023-12-04T08:27:58;29.37;;;14.03;;
13571;SDS011;6857;53.484;10.216;2023-12-04T08:30:24;26.43;;;12.73;;
13571;SDS011;6857;53.484;10.216;2023-12-04T08:32:52;31.70;;;12.90;;
13571;SDS011;6857;53.484;10.216;2023-12-04T08:35:17;31.67;;;14.60;;
13571;SDS011;6857;53.484;10.216;2023-12-04T08:37:43;28.83;;;14.40;;
13571;SDS011;6857;53.484;10.216;2023-12-04T08:40:09;32.47;;;14.30;;
13571;SDS011;6857;53.484;10.216;2023-12-04T08:42:35;30.03;;;14.37;;
13571;SDS011;6857;53.484;10.216;2023-12-04T08:45:00;31.00;;;14.90;;
13571;SDS011;6857;53.484;10.216;2023-12-04T08:47:26;32.60;;;15.77;;
13571;SDS011;6857;53.484;10.216;2023-12-04T08:49:51;39.47;;;16.90;;
13571;SDS011;6857;53.484;10.216;2023-12-04T08:52:17;32.13;;;14.53;;
13571;SDS011;6857;53.484;10.216;2023-12-04T08:54:43;32.77;;;14.60;;
13571;SDS011;6857;53.484;10.216;2023-12-04T08:57:09;39.90;;;16.13;;
13571;SDS011;6857;53.484;10.216;2023-12-04T08:59:35;32.60;;;13.77;;
13571;SDS011;6857;53.484;10.216;2023-12-04T09:02:00;33.20;;;15.13;;
13571;SDS011;6857;53.484;10.216;2023-12-04T09:04:30;32.43;;;15.80;;
13571;SDS011;6857;53.484;10.216;2023-12-04T09:06:58;27.50;;;14.20;;
13571;SDS011;6857;53.484;10.216;2023-12-04T09:09:24;29.80;;;14.03;;
13571;SDS011;6857;53.484;10.216;2023-12-04T09:11:50;35.60;;;17.30;;
13571;SDS011;6857;53.484;10.216;2023-12-04T09:14:15;40.70;;;17.37;;
13571;SDS011;6857;53.484;10.216;2023-12-04T09:16:41;32.47;;;15.13;;
13571;SDS011;6857;53.484;10.216;2023-12-04T09:19:07;35.20;;;16.43;;
13571;SDS011;6857;53.484;10.216;2023-12-04T09:21:33;34.70;;;16.07;;
13571;SDS011;6857;53.484;10.216;2023-12-04T09:23:58;31.73;;;14.90;;
13571;SDS011;6857;53.484;10.216;2023-12-04T09:26:24;35.00;;;16.43;;
13571;SDS011;6857;53.484;10.216;2023-12-04T09:28:49;32.23;;;15.13;;
13571;SDS011;6857;53.484;10.216;2023-12-04T09:31:15;34.70;;;16.40;;
13571;SDS011;6857;53.484;10.216;2023-12-04T09:33:41;33.27;;;15.37;;
13571;SDS011;6857;53.484;10.216;2023-12-04T09:36:07;34.77;;;14.87;;
13571;SDS011;6857;53.484;10.216;2023-12-04T09:38:33;34.23;;;16.10;;
13571;SDS011;6857;53.484;10.216;2023-12-04T09:40:59;33.00;;;15.80;;
13571;SDS011;6857;53.484;10.216;2023-12-04T09:43:36;32.57;;;16.57;;
13571;SDS011;6857;53.484;10.216;2023-12-04T09:46:02;34.97;;;15.77;;
13571;SDS011;6857;53.484;10.216;2023-12-04T09:48:28;35.23;;;16.87;;
13571;SDS011;6857;53.484;10.216;2023-12-04T09:50:55;31.67;;;15.10;;
13571;SDS011;6857;53.484;10.216;2023-12-04T09:53:22;33.87;;;16.17;;
13571;SDS011;6857;53.484;10.216;2023-12-04T09:55:49;37.87;;;16.43;;
13571;SDS011;6857;53.484;10.216;2023-12-04T09:58:15;31.37;;;15.37;;
13571;SDS011;6857;53.484;10.216;2023-12-04T10:00:42;38.27;;;16.07;;
13571;SDS011;6857;53.484;10.216;2023-12-04T10:03:08;34.40;;;15.37;;
13571;SDS011;6857;53.484;10.216;2023-12-04T10:05:34;32.97;;;15.23;;
13571;SDS011;6857;53.484;10.216;2023-12-04T10:07:59;35.07;;;15.00;;
13571;SDS011;6857;53.484;10.216;2023-12-04T10:10:25;28.43;;;14.70;;
13571;SDS011;6857;53.484;10.216;2023-12-04T10:12:51;31.10;;;14.33;;
13571;SDS011;6857;53.484;10.216;2023-12-04T10:15:16;32.70;;;15.80;;
13571;SDS011;6857;53.484;10.216;2023-12-04T10:17:42;31.93;;;14.80;;
13571;SDS011;6857;53.484;10.216;2023-12-04T10:20:12;28.80;;;14.70;;
13571;SDS011;6857;53.484;10.216;2023-12-04T10:22:58;27.33;;;13.50;;
13571;SDS011;6857;53.484;10.216;2023-12-04T10:25:28;32.63;;;13.70;;
13571;SDS011;6857;53.484;10.216;2023-12-04T10:28:06;29.00;;;14.53;;
13571;SDS011;6857;53.484;10.216;2023-12-04T10:30:34;31.57;;;14.53;;
13571;SDS011;6857;53.484;10.216;2023-12-04T10:33:03;27.20;;;13.03;;
13571;SDS011;6857;53.484;10.216;2023-12-04T10:35:31;28.03;;;14.47;;
13571;SDS011;6857;53.484;10.216;2023-12-04T10:37:58;25.77;;;13.70;;
13571;SDS011;6857;53.484;10.216;2023-12-04T10:40:28;27.63;;;13.93;;
13571;SDS011;6857;53.484;10.216;2023-12-04T10:45:34;26.47;;;13.57;;
13571;SDS011;6857;53.484;10.216;2023-12-04T10:48:01;24.97;;;13.93;;
13571;SDS011;6857;53.484;10.216;2023-12-04T10:50:29;26.63;;;12.73;;
13571;SDS011;6857;53.484;10.216;2023-12-04T10:53:06;27.57;;;12.83;;
13571;SDS011;6857;53.484;10.216;2023-12-04T10:55:33;24.60;;;11.57;;
13571;SDS011;6857;53.484;10.216;2023-12-04T10:57:59;24.53;;;12.33;;
13571;SDS011;6857;53.484;10.216;2023-12-04T11:00:32;24.53;;;11.97;;
13571;SDS011;6857;53.484;10.216;2023-12-04T11:03:01;31.47;;;14.13;;
13571;SDS011;6857;53.484;10.216;2023-12-04T11:05:38;23.90;;;12.90;;
13571;SDS011;6857;53.484;10.216;2023-12-04T11:08:05;23.40;;;12.80;;
13571;SDS011;6857;53.484;10.216;2023-12-04T11:10:32;26.90;;;13.03;;
13571;SDS011;6857;53.484;10.216;2023-12-04T11:13:06;27.83;;;13.53;;
13571;SDS011;6857;53.484;10.216;2023-12-04T11:15:48;24.23;;;12.13;;
13571;SDS011;6857;53.484;10.216;2023-12-04T11:18:17;22.97;;;12.93;;
13571;SDS011;6857;53.484;10.216;2023-12-04T11:20:49;26.37;;;12.50;;
13571;SDS011;6857;53.484;10.216;2023-12-04T11:23:20;24.07;;;13.63;;
13571;SDS011;6857;53.484;10.216;2023-12-04T11:25:46;27.43;;;13.27;;
13571;SDS011;6857;53.484;10.216;2023-12-04T11:28:12;21.70;;;13.37;;
13571;SDS011;6857;53.484;10.216;2023-12-04T11:30:39;25.40;;;13.20;;
13571;SDS011;6857;53.484;10.216;2023-12-04T11:33:05;21.30;;;12.13;;
13571;SDS011;6857;53.484;10.216;2023-12-04T11:35:32;21.53;;;11.50;;
13571;SDS011;6857;53.484;10.216;2023-12-04T11:37:58;21.27;;;11.87;;
13571;SDS011;6857;53.484;10.216;2023-12-04T11:40:24;29.60;;;13.67;;
13571;SDS011;6857;53.484;10.216;2023-12-04T11:42:50;24.57;;;12.40;;
13571;SDS011;6857;53.484;10.216;2023-12-04T11:45:20;22.67;;;12.87;;
13571;SDS011;6857;53.484;10.216;2023-12-04T11:47:55;25.97;;;12.63;;
13571;SDS011;6857;53.484;10.216;2023-12-04T11:50:22;22.27;;;11.40;;
13571;SDS011;6857;53.484;10.216;2023-12-04T11:52:49;24.50;;;12.27;;
13571;SDS011;6857;53.484;10.216;2023-12-04T11:55:15;25.20;;;13.97;;
13571;SDS011;6857;53.484;10.216;2023-12-04T11:57:42;25.67;;;13.20;;
13571;SDS011;6857;53.484;10.216;2023-12-04T12:00:08;23.87;;;11.67;;
13571;SDS011;6857;53.484;10.216;2023-12-04T12:02:35;26.37;;;13.07;;
13571;SDS011;6857;53.484;10.216;2023-12-04T12:05:02;21.00;;;11.60;;
13571;SDS011;6857;53.484;10.216;2023-12-04T12:07:28;24.50;;;11.63;;
13571;SDS011;6857;53.484;10.216;2023-12-04T12:09:54;23.20;;;11.47;;
13571;SDS011;6857;53.484;10.216;2023-12-04T12:12:20;21.83;;;12.03;;
13571;SDS011;6857;53.484;10.216;2023-12-04T12:14:46;24.20;;;12.07;;
13571;SDS011;6857;53.484;10.216;2023-12-04T12:17:11;22.13;;;12.57;;
13571;SDS011;6857;53.484;10.216;2023-12-04T12:19:38;20.00;;;11.30;;
13571;SDS011;6857;53.484;10.216;2023-12-04T12:22:04;21.40;;;11.20;;
13571;SDS011;6857;53.484;10.216;2023-12-04T12:24:30;20.63;;;11.73;;
13571;SDS011;6857;53.484;10.216;2023-12-04T12:26:56;24.57;;;11.03;;
13571;SDS011;6857;53.484;10.216;2023-12-04T12:29:21;20.10;;;10.67;;
13571;SDS011;6857;53.484;10.216;2023-12-04T12:31:47;31.13;;;13.53;;
13571;SDS011;6857;53.484;10.216;2023-12-04T12:34:12;30.97;;;16.57;;
13571;SDS011;6857;53.484;10.216;2023-12-04T12:36:38;26.33;;;14.57;;
13571;SDS011;6857;53.484;10.216;2023-12-04T12:39:03;23.37;;;12.80;;
13571;SDS011;6857;53.484;10.216;2023-12-04T12:41:30;24.67;;;14.33;;
13571;SDS011;6857;53.484;10.216;2023-12-04T12:43:56;23.90;;;14.10;;
13571;SDS011;6857;53.484;10.216;2023-12-04T12:46:21;24.90;;;13.23;;
13571;SDS011;6857;53.484;10.216;2023-12-04T12:48:47;23.83;;;12.00;;
13571;SDS011;6857;53.484;10.216;2023-12-04T12:51:13;23.00;;;12.43;;
13571;SDS011;6857;53.484;10.216;2023-12-04T12:53:39;26.57;;;12.03;;
13571;SDS011;6857;53.484;10.216;2023-12-04T12:56:04;27.80;;;12.63;;
13571;SDS011;6857;53.484;10.216;2023-12-04T12:58:31;21.57;;;12.77;;
13571;SDS011;6857;53.484;10.216;2023-12-04T13:00:56;20.13;;;11.50;;
13571;SDS011;6857;53.484;10.216;2023-12-04T13:03:22;22.77;;;11.20;;
13571;SDS011;6857;53.484;10.216;2023-12-04T13:05:47;22.23;;;12.17;;
13571;SDS011;6857;53.484;10.216;2023-12-04T13:08:13;20.67;;;11.40;;
13571;SDS011;6857;53.484;10.216;2023-12-04T13:10:40;22.23;;;12.23;;
13571;SDS011;6857;53.484;10.216;2023-12-04T13:13:10;20.03;;;11.47;;
13571;SDS011;6857;53.484;10.216;2023-12-04T13:15:36;21.37;;;11.20;;
13571;SDS011;6857;53.484;10.216;2023-12-04T13:18:02;18.63;;;11.10;;
13571;SDS011;6857;53.484;10.216;2023-12-04T13:20:28;19.33;;;10.83;;
13571;SDS011;6857;53.484;10.216;2023-12-04T13:22:53;20.33;;;12.03;;
13571;SDS011;6857;53.484;10.216;2023-12-04T13:25:19;21.93;;;12.27;;
13571;SDS011;6857;53.484;10.216;2023-12-04T13:27:45;19.17;;;10.80;;
13571;SDS011;6857;53.484;10.216;2023-12-04T13:30:11;18.97;;;10.50;;
13571;SDS011;6857;53.484;10.216;2023-12-04T13:32:37;20.10;;;11.53;;
13571;SDS011;6857;53.484;10.216;2023-12-04T13:35:03;22.60;;;12.67;;
13571;SDS011;6857;53.484;10.216;2023-12-04T13:37:30;22.07;;;12.63;;
13571;SDS011;6857;53.484;10.216;2023-12-04T13:40:02;23.47;;;12.07;;
13571;SDS011;6857;53.484;10.216;2023-12-04T13:42:31;22.60;;;12.67;;
13571;SDS011;6857;53.484;10.216;2023-12-04T13:45:16;22.87;;;12.60;;
13571;SDS011;6857;53.484;10.216;2023-12-04T13:47:42;22.50;;;12.53;;
13571;SDS011;6857;53.484;10.216;2023-12-04T13:50:08;27.80;;;12.97;;
13571;SDS011;6857;53.484;10.216;2023-12-04T13:52:35;34.70;;;16.07;;
13571;SDS011;6857;53.484;10.216;2023-12-04T13:55:01;22.67;;;12.73;;
13571;SDS011;6857;53.484;10.216;2023-12-04T13:57:33;23.83;;;12.10;;
13571;SDS011;6857;53.484;10.216;2023-12-04T14:00:08;18.30;;;10.33;;
13571;SDS011;6857;53.484;10.216;2023-12-04T14:02:34;22.03;;;12.23;;
13571;SDS011;6857;53.484;10.216;2023-12-04T14:05:02;20.03;;;10.50;;
13571;SDS011;6857;53.484;10.216;2023-12-04T14:07:28;26.23;;;12.20;;
13571;SDS011;6857;53.484;10.216;2023-12-04T14:09:53;25.07;;;12.10;;
13571;SDS011;6857;53.484;10.216;2023-12-04T14:12:19;20.00;;;11.37;;
13571;SDS011;6857;53.484;10.216;2023-12-04T14:14:45;18.83;;;10.70;;
13571;SDS011;6857;53.484;10.216;2023-12-04T14:17:10;21.63;;;12.13;;
13571;SDS011;6857;53.484;10.216;2023-12-04T14:19:37;21.40;;;12.03;;
13571;SDS011;6857;53.484;10.216;2023-12-04T14:22:04;19.03;;;10.67;;